sensor_id;sensor_type;location;lat;lon;timestamp;temperature;humidity
802;DHT22;383;48.766;9.270;2022-12-11T00:02:10;1.70;90.40
802;DHT22;383;48.766;9.270;2022-12-11T00:04:37;1.70;90.40
802;DHT22;383;48.766;9.270;2022-12-11T00:07:03;1.80;90.20
802;DHT22;383;48.766;9.270;2022-12-11T00:09:31;1.80;90.10
802;DHT22;383;48.766;9.270;2022-12-11T00:11:58;1.80;90.10
802;DHT22;383;48.766;9.270;2022-12-11T00:14:26;1.70;90.40
802;DHT22;383;48.766;9.270;2022-12-11T00:16:53;1.70;90.50
802;DHT22;383;48.766;9.270;2022-12-11T00:19:20;1.70;90.70
802;DHT22;383;48.766;9.270;2022-12-11T00:21:47;1.70;91.10
802;DHT22;383;48.766;9.270;2022-12-11T00:24:14;1.70;91.20
802;DHT22;383;48.766;9.270;2022-12-11T00:26:43;1.70;91.10
802;DHT22;383;48.766;9.270;2022-12-11T00:29:10;1.70;90.80
802;DHT22;383;48.766;9.270;2022-12-11T00:31:39;1.80;90.60
802;DHT22;383;48.766;9.270;2022-12-11T00:34:06;1.90;90.10
802;DHT22;383;48.766;9.270;2022-12-11T00:36:33;1.90;89.90
802;DHT22;383;48.766;9.270;2022-12-11T00:39:00;1.90;89.70
802;DHT22;383;48.766;9.270;2022-12-11T00:41:28;1.90;89.40
802;DHT22;383;48.766;9.270;2022-12-11T00:43:56;1.90;89.00
802;DHT22;383;48.766;9.270;2022-12-11T00:46:23;1.90;88.90
802;DHT22;383;48.766;9.270;2022-12-11T00:48:49;1.90;89.00
802;DHT22;383;48.766;9.270;2022-12-11T00:51:18;1.90;89.00
802;DHT22;383;48.766;9.270;2022-12-11T00:53:45;2.00;88.50
802;DHT22;383;48.766;9.270;2022-12-11T00:56:13;2.00;88.60
802;DHT22;383;48.766;9.270;2022-12-11T00:58:40;2.00;88.10
802;DHT22;383;48.766;9.270;2022-12-11T01:01:10;2.00;88.20
802;DHT22;383;48.766;9.270;2022-12-11T01:03:38;1.90;88.20
802;DHT22;383;48.766;9.270;2022-12-11T01:06:06;1.90;89.00
802;DHT22;383;48.766;9.270;2022-12-11T01:08:33;1.80;89.30
802;DHT22;383;48.766;9.270;2022-12-11T01:11:01;1.80;89.60
802;DHT22;383;48.766;9.270;2022-12-11T01:13:27;1.80;89.20
802;DHT22;383;48.766;9.270;2022-12-11T01:15:53;1.90;88.60
802;DHT22;383;48.766;9.270;2022-12-11T01:18:22;1.90;88.60
802;DHT22;383;48.766;9.270;2022-12-11T01:20:48;2.00;88.40
802;DHT22;383;48.766;9.270;2022-12-11T01:23:15;1.90;88.10
802;DHT22;383;48.766;9.270;2022-12-11T01:25:42;1.80;88.60
802;DHT22;383;48.766;9.270;2022-12-11T01:28:09;1.80;88.90
802;DHT22;383;48.766;9.270;2022-12-11T01:30:36;1.80;89.00
802;DHT22;383;48.766;9.270;2022-12-11T01:33:03;1.90;88.80
802;DHT22;383;48.766;9.270;2022-12-11T01:35:31;2.00;87.80
802;DHT22;383;48.766;9.270;2022-12-11T01:37:58;2.00;87.30
802;DHT22;383;48.766;9.270;2022-12-11T01:40:25;1.90;87.10
802;DHT22;383;48.766;9.270;2022-12-11T01:42:52;1.80;88.40
802;DHT22;383;48.766;9.270;2022-12-11T01:45:31;1.80;89.00
802;DHT22;383;48.766;9.270;2022-12-11T01:48:03;1.80;89.20
802;DHT22;383;48.766;9.270;2022-12-11T01:50:35;1.80;89.20
802;DHT22;383;48.766;9.270;2022-12-11T01:53:05;1.80;89.20
802;DHT22;383;48.766;9.270;2022-12-11T01:55:32;1.80;89.20
802;DHT22;383;48.766;9.270;2022-12-11T01:58:01;1.80;88.90
802;DHT22;383;48.766;9.270;2022-12-11T02:00:28;1.90;89.20
802;DHT22;383;48.766;9.270;2022-12-11T02:02:55;1.90;89.20
802;DHT22;383;48.766;9.270;2022-12-11T02:05:21;2.00;89.40
802;DHT22;383;48.766;9.270;2022-12-11T02:07:52;2.00;89.30
802;DHT22;383;48.766;9.270;2022-12-11T02:10:22;2.10;88.10
802;DHT22;383;48.766;9.270;2022-12-11T02:12:54;2.20;87.20
802;DHT22;383;48.766;9.270;2022-12-11T02:15:30;2.20;86.90
802;DHT22;383;48.766;9.270;2022-12-11T02:18:06;2.20;86.70
802;DHT22;383;48.766;9.270;2022-12-11T02:20:42;2.10;86.90
802;DHT22;383;48.766;9.270;2022-12-11T02:23:36;2.10;87.70
802;DHT22;383;48.766;9.270;2022-12-11T02:26:15;2.10;88.00
802;DHT22;383;48.766;9.270;2022-12-11T02:28:49;2.10;87.80
802;DHT22;383;48.766;9.270;2022-12-11T02:31:22;2.10;87.80
802;DHT22;383;48.766;9.270;2022-12-11T02:33:53;2.10;88.00
802;DHT22;383;48.766;9.270;2022-12-11T02:36:24;2.10;88.20
802;DHT22;383;48.766;9.270;2022-12-11T02:38:53;2.10;88.40
802;DHT22;383;48.766;9.270;2022-12-11T02:41:22;2.10;88.80
802;DHT22;383;48.766;9.270;2022-12-11T02:43:52;2.10;89.20
802;DHT22;383;48.766;9.270;2022-12-11T02:46:21;2.10;89.80
802;DHT22;383;48.766;9.270;2022-12-11T02:48:49;2.10;89.80
802;DHT22;383;48.766;9.270;2022-12-11T02:51:23;2.20;89.80
802;DHT22;383;48.766;9.270;2022-12-11T02:53:53;2.20;89.90
802;DHT22;383;48.766;9.270;2022-12-11T02:56:25;2.20;89.80
802;DHT22;383;48.766;9.270;2022-12-11T02:59:00;2.20;89.40
802;DHT22;383;48.766;9.270;2022-12-11T03:01:29;2.20;89.60
802;DHT22;383;48.766;9.270;2022-12-11T03:03:57;2.20;89.70
802;DHT22;383;48.766;9.270;2022-12-11T03:06:28;2.30;89.80
802;DHT22;383;48.766;9.270;2022-12-11T03:08:55;2.30;89.30
802;DHT22;383;48.766;9.270;2022-12-11T03:11:22;2.30;88.80
802;DHT22;383;48.766;9.270;2022-12-11T03:13:49;2.30;88.50
802;DHT22;383;48.766;9.270;2022-12-11T03:16:23;2.30;88.50
802;DHT22;383;48.766;9.270;2022-12-11T03:18:58;2.30;88.40
802;DHT22;383;48.766;9.270;2022-12-11T03:21:31;2.30;88.00
802;DHT22;383;48.766;9.270;2022-12-11T03:24:02;2.20;88.10
802;DHT22;383;48.766;9.270;2022-12-11T03:26:34;2.30;87.80
802;DHT22;383;48.766;9.270;2022-12-11T03:29:05;2.30;87.60
802;DHT22;383;48.766;9.270;2022-12-11T03:31:41;2.30;87.60
802;DHT22;383;48.766;9.270;2022-12-11T03:34:14;2.30;87.60
802;DHT22;383;48.766;9.270;2022-12-11T03:36:43;2.30;87.40
802;DHT22;383;48.766;9.270;2022-12-11T03:39:15;2.30;87.40
802;DHT22;383;48.766;9.270;2022-12-11T03:41:44;2.30;87.70
802;DHT22;383;48.766;9.270;2022-12-11T03:44:13;2.20;86.10
802;DHT22;383;48.766;9.270;2022-12-11T03:46:42;2.10;85.90
802;DHT22;383;48.766;9.270;2022-12-11T03:49:15;2.10;86.80
802;DHT22;383;48.766;9.270;2022-12-11T03:51:43;2.10;87.20
802;DHT22;383;48.766;9.270;2022-12-11T03:54:12;2.10;86.90
802;DHT22;383;48.766;9.270;2022-12-11T03:56:40;2.20;86.30
802;DHT22;383;48.766;9.270;2022-12-11T03:59:08;2.20;86.50
802;DHT22;383;48.766;9.270;2022-12-11T04:01:35;2.20;86.30
802;DHT22;383;48.766;9.270;2022-12-11T04:04:03;2.20;86.10
802;DHT22;383;48.766;9.270;2022-12-11T04:06:30;2.20;86.40
802;DHT22;383;48.766;9.270;2022-12-11T04:08:57;2.20;86.80
802;DHT22;383;48.766;9.270;2022-12-11T04:11:24;2.10;87.30
802;DHT22;383;48.766;9.270;2022-12-11T04:14:00;2.20;86.80
802;DHT22;383;48.766;9.270;2022-12-11T04:16:44;2.10;86.90
802;DHT22;383;48.766;9.270;2022-12-11T04:19:13;2.20;86.50
802;DHT22;383;48.766;9.270;2022-12-11T04:21:57;2.10;87.10
802;DHT22;383;48.766;9.270;2022-12-11T04:24:53;2.20;88.00
802;DHT22;383;48.766;9.270;2022-12-11T04:27:20;2.10;88.00
802;DHT22;383;48.766;9.270;2022-12-11T04:30:01;2.10;88.40
802;DHT22;383;48.766;9.270;2022-12-11T04:32:28;2.10;88.00
802;DHT22;383;48.766;9.270;2022-12-11T04:34:56;2.10;87.40
802;DHT22;383;48.766;9.270;2022-12-11T04:37:23;2.10;88.10
802;DHT22;383;48.766;9.270;2022-12-11T04:39:49;2.10;87.70
802;DHT22;383;48.766;9.270;2022-12-11T04:42:16;2.10;88.10
802;DHT22;383;48.766;9.270;2022-12-11T04:44:43;2.10;88.50
802;DHT22;383;48.766;9.270;2022-12-11T04:47:10;2.10;88.40
802;DHT22;383;48.766;9.270;2022-12-11T04:49:36;2.10;88.10
802;DHT22;383;48.766;9.270;2022-12-11T04:52:04;2.10;88.20
802;DHT22;383;48.766;9.270;2022-12-11T04:54:32;2.10;88.20
802;DHT22;383;48.766;9.270;2022-12-11T04:56:58;2.10;88.40
802;DHT22;383;48.766;9.270;2022-12-11T04:59:25;2.20;88.40
802;DHT22;383;48.766;9.270;2022-12-11T05:01:52;2.10;88.20
802;DHT22;383;48.766;9.270;2022-12-11T05:04:18;2.10;87.40
802;DHT22;383;48.766;9.270;2022-12-11T05:06:48;2.00;83.90
802;DHT22;383;48.766;9.270;2022-12-11T05:09:16;2.00;84.70
802;DHT22;383;48.766;9.270;2022-12-11T05:11:43;2.00;85.20
802;DHT22;383;48.766;9.270;2022-12-11T05:14:10;1.90;85.50
802;DHT22;383;48.766;9.270;2022-12-11T05:16:36;2.00;85.20
802;DHT22;383;48.766;9.270;2022-12-11T05:19:03;2.00;84.50
802;DHT22;383;48.766;9.270;2022-12-11T05:21:30;2.00;83.60
802;DHT22;383;48.766;9.270;2022-12-11T05:23:57;2.00;82.20
802;DHT22;383;48.766;9.270;2022-12-11T05:26:25;2.00;82.20
802;DHT22;383;48.766;9.270;2022-12-11T05:28:52;1.90;82.70
802;DHT22;383;48.766;9.270;2022-12-11T05:31:21;1.90;83.70
802;DHT22;383;48.766;9.270;2022-12-11T05:33:48;1.90;84.00
802;DHT22;383;48.766;9.270;2022-12-11T05:36:17;1.90;84.00
802;DHT22;383;48.766;9.270;2022-12-11T05:38:44;1.90;84.50
802;DHT22;383;48.766;9.270;2022-12-11T05:41:13;1.80;84.90
802;DHT22;383;48.766;9.270;2022-12-11T05:43:42;1.70;85.30
802;DHT22;383;48.766;9.270;2022-12-11T05:46:11;1.60;85.50
802;DHT22;383;48.766;9.270;2022-12-11T05:48:38;1.60;84.80
802;DHT22;383;48.766;9.270;2022-12-11T05:51:06;1.50;84.90
802;DHT22;383;48.766;9.270;2022-12-11T05:53:34;1.40;85.10
802;DHT22;383;48.766;9.270;2022-12-11T05:56:02;1.30;85.30
802;DHT22;383;48.766;9.270;2022-12-11T05:58:29;1.20;85.50
802;DHT22;383;48.766;9.270;2022-12-11T06:00:57;1.10;85.70
802;DHT22;383;48.766;9.270;2022-12-11T06:03:24;1.00;86.10
802;DHT22;383;48.766;9.270;2022-12-11T06:05:51;1.00;86.80
802;DHT22;383;48.766;9.270;2022-12-11T06:08:18;1.00;87.20
802;DHT22;383;48.766;9.270;2022-12-11T06:10:45;0.90;87.20
802;DHT22;383;48.766;9.270;2022-12-11T06:13:12;0.90;87.80
802;DHT22;383;48.766;9.270;2022-12-11T06:15:39;0.80;88.50
802;DHT22;383;48.766;9.270;2022-12-11T06:18:07;0.80;89.20
802;DHT22;383;48.766;9.270;2022-12-11T06:20:35;0.80;89.80
802;DHT22;383;48.766;9.270;2022-12-11T06:23:02;0.80;89.40
802;DHT22;383;48.766;9.270;2022-12-11T06:25:29;0.80;89.40
802;DHT22;383;48.766;9.270;2022-12-11T06:27:56;0.80;89.30
802;DHT22;383;48.766;9.270;2022-12-11T06:30:23;0.80;89.00
802;DHT22;383;48.766;9.270;2022-12-11T06:32:49;0.80;89.20
802;DHT22;383;48.766;9.270;2022-12-11T06:35:17;0.70;89.60
802;DHT22;383;48.766;9.270;2022-12-11T06:37:44;0.70;89.80
802;DHT22;383;48.766;9.270;2022-12-11T06:40:11;0.70;89.90
802;DHT22;383;48.766;9.270;2022-12-11T06:42:38;0.60;90.00
802;DHT22;383;48.766;9.270;2022-12-11T06:45:06;0.50;89.90
802;DHT22;383;48.766;9.270;2022-12-11T06:47:33;0.50;89.90
802;DHT22;383;48.766;9.270;2022-12-11T06:50:00;0.50;89.90
802;DHT22;383;48.766;9.270;2022-12-11T06:52:28;0.40;90.30
802;DHT22;383;48.766;9.270;2022-12-11T06:54:55;0.30;90.40
802;DHT22;383;48.766;9.270;2022-12-11T06:57:22;0.30;90.60
802;DHT22;383;48.766;9.270;2022-12-11T06:59:49;0.30;90.80
802;DHT22;383;48.766;9.270;2022-12-11T07:02:17;0.30;90.80
802;DHT22;383;48.766;9.270;2022-12-11T07:04:44;0.30;90.90
802;DHT22;383;48.766;9.270;2022-12-11T07:07:11;0.30;91.10
802;DHT22;383;48.766;9.270;2022-12-11T07:09:40;0.30;91.40
802;DHT22;383;48.766;9.270;2022-12-11T07:12:06;0.30;91.70
802;DHT22;383;48.766;9.270;2022-12-11T07:14:34;0.30;92.00
802;DHT22;383;48.766;9.270;2022-12-11T07:17:01;0.40;92.10
802;DHT22;383;48.766;9.270;2022-12-11T07:19:28;0.50;91.90
802;DHT22;383;48.766;9.270;2022-12-11T07:21:55;0.60;91.60
802;DHT22;383;48.766;9.270;2022-12-11T07:24:21;0.80;90.50
802;DHT22;383;48.766;9.270;2022-12-11T07:26:50;0.90;89.40
802;DHT22;383;48.766;9.270;2022-12-11T07:29:17;0.90;89.80
802;DHT22;383;48.766;9.270;2022-12-11T07:31:44;0.90;90.00
802;DHT22;383;48.766;9.270;2022-12-11T07:34:11;0.80;90.20
802;DHT22;383;48.766;9.270;2022-12-11T07:36:38;0.80;90.40
802;DHT22;383;48.766;9.270;2022-12-11T07:39:05;0.80;90.30
802;DHT22;383;48.766;9.270;2022-12-11T07:41:32;0.80;90.30
802;DHT22;383;48.766;9.270;2022-12-11T07:44:01;0.80;90.60
802;DHT22;383;48.766;9.270;2022-12-11T07:46:29;0.80;90.90
802;DHT22;383;48.766;9.270;2022-12-11T07:48:56;0.90;90.70
802;DHT22;383;48.766;9.270;2022-12-11T07:51:26;0.90;90.40
802;DHT22;383;48.766;9.270;2022-12-11T07:53:55;1.00;90.40
802;DHT22;383;48.766;9.270;2022-12-11T07:56:22;1.00;89.90
802;DHT22;383;48.766;9.270;2022-12-11T07:58:49;1.10;89.60
802;DHT22;383;48.766;9.270;2022-12-11T08:01:20;1.10;89.30
802;DHT22;383;48.766;9.270;2022-12-11T08:03:47;1.20;89.70
802;DHT22;383;48.766;9.270;2022-12-11T08:06:15;1.20;89.60
802;DHT22;383;48.766;9.270;2022-12-11T08:08:42;1.40;88.60
802;DHT22;383;48.766;9.270;2022-12-11T08:11:11;1.40;87.80
802;DHT22;383;48.766;9.270;2022-12-11T08:13:39;1.40;87.40
802;DHT22;383;48.766;9.270;2022-12-11T08:16:08;1.40;87.80
802;DHT22;383;48.766;9.270;2022-12-11T08:18:38;1.40;88.20
802;DHT22;383;48.766;9.270;2022-12-11T08:21:05;1.50;88.10
802;DHT22;383;48.766;9.270;2022-12-11T08:23:32;1.60;88.00
802;DHT22;383;48.766;9.270;2022-12-11T08:26:01;1.60;88.40
802;DHT22;383;48.766;9.270;2022-12-11T08:28:27;1.70;88.50
802;DHT22;383;48.766;9.270;2022-12-11T08:30:54;1.90;87.70
802;DHT22;383;48.766;9.270;2022-12-11T08:33:21;2.00;87.20
802;DHT22;383;48.766;9.270;2022-12-11T08:35:49;2.10;86.70
802;DHT22;383;48.766;9.270;2022-12-11T08:38:15;2.20;86.40
802;DHT22;383;48.766;9.270;2022-12-11T08:40:42;2.40;85.60
802;DHT22;383;48.766;9.270;2022-12-11T08:43:09;2.50;85.20
802;DHT22;383;48.766;9.270;2022-12-11T08:45:37;2.50;84.80
802;DHT22;383;48.766;9.270;2022-12-11T08:48:04;2.50;85.10
802;DHT22;383;48.766;9.270;2022-12-11T08:50:30;2.50;85.50
802;DHT22;383;48.766;9.270;2022-12-11T08:52:59;2.60;85.60
802;DHT22;383;48.766;9.270;2022-12-11T08:55:26;2.60;85.50
802;DHT22;383;48.766;9.270;2022-12-11T08:57:52;2.60;85.50
802;DHT22;383;48.766;9.270;2022-12-11T09:00:20;2.60;85.60
802;DHT22;383;48.766;9.270;2022-12-11T09:02:47;2.70;85.50
802;DHT22;383;48.766;9.270;2022-12-11T09:05:14;2.80;84.00
802;DHT22;383;48.766;9.270;2022-12-11T09:07:40;2.80;83.10
802;DHT22;383;48.766;9.270;2022-12-11T09:10:09;2.70;83.10
802;DHT22;383;48.766;9.270;2022-12-11T09:12:36;2.70;83.60
802;DHT22;383;48.766;9.270;2022-12-11T09:15:04;2.60;84.40
802;DHT22;383;48.766;9.270;2022-12-11T09:17:31;2.60;85.20
802;DHT22;383;48.766;9.270;2022-12-11T09:19:58;2.60;85.60
802;DHT22;383;48.766;9.270;2022-12-11T09:22:25;2.60;86.00
802;DHT22;383;48.766;9.270;2022-12-11T09:24:52;2.70;85.90
802;DHT22;383;48.766;9.270;2022-12-11T09:27:20;2.70;86.40
802;DHT22;383;48.766;9.270;2022-12-11T09:29:48;2.80;86.80
802;DHT22;383;48.766;9.270;2022-12-11T09:32:14;2.80;87.10
802;DHT22;383;48.766;9.270;2022-12-11T09:34:41;2.70;87.40
802;DHT22;383;48.766;9.270;2022-12-11T09:37:08;2.70;87.80
802;DHT22;383;48.766;9.270;2022-12-11T09:39:34;2.80;87.60
802;DHT22;383;48.766;9.270;2022-12-11T09:42:05;2.80;87.70
802;DHT22;383;48.766;9.270;2022-12-11T09:44:41;2.80;88.20
802;DHT22;383;48.766;9.270;2022-12-11T09:47:16;2.80;88.10
802;DHT22;383;48.766;9.270;2022-12-11T09:49:46;2.80;88.40
802;DHT22;383;48.766;9.270;2022-12-11T09:52:17;2.70;87.80
802;DHT22;383;48.766;9.270;2022-12-11T09:54:49;2.70;88.20
802;DHT22;383;48.766;9.270;2022-12-11T09:57:30;2.70;87.60
802;DHT22;383;48.766;9.270;2022-12-11T10:00:18;2.60;88.60
802;DHT22;383;48.766;9.270;2022-12-11T10:02:58;2.60;89.20
802;DHT22;383;48.766;9.270;2022-12-11T10:05:36;2.70;89.20
802;DHT22;383;48.766;9.270;2022-12-11T10:08:09;2.80;88.50
802;DHT22;383;48.766;9.270;2022-12-11T10:10:41;2.90;86.80
802;DHT22;383;48.766;9.270;2022-12-11T10:13:16;2.90;86.50
802;DHT22;383;48.766;9.270;2022-12-11T10:15:53;2.90;86.50
802;DHT22;383;48.766;9.270;2022-12-11T10:18:22;3.00;86.40
802;DHT22;383;48.766;9.270;2022-12-11T10:20:51;3.00;86.10
802;DHT22;383;48.766;9.270;2022-12-11T10:23:20;3.00;86.70
802;DHT22;383;48.766;9.270;2022-12-11T10:25:51;3.00;86.70
802;DHT22;383;48.766;9.270;2022-12-11T10:28:20;3.10;86.70
802;DHT22;383;48.766;9.270;2022-12-11T10:33:30;3.20;86.10
802;DHT22;383;48.766;9.270;2022-12-11T10:36:00;3.20;85.90
802;DHT22;383;48.766;9.270;2022-12-11T10:38:28;3.20;85.70
802;DHT22;383;48.766;9.270;2022-12-11T10:40:58;3.30;85.30
802;DHT22;383;48.766;9.270;2022-12-11T10:43:34;3.30;82.80
802;DHT22;383;48.766;9.270;2022-12-11T10:46:01;3.30;84.30
802;DHT22;383;48.766;9.270;2022-12-11T10:48:30;3.20;84.30
802;DHT22;383;48.766;9.270;2022-12-11T10:50:59;3.20;84.30
802;DHT22;383;48.766;9.270;2022-12-11T10:53:28;3.30;84.40
802;DHT22;383;48.766;9.270;2022-12-11T10:55:56;3.40;83.20
802;DHT22;383;48.766;9.270;2022-12-11T10:58:25;3.40;83.90
802;DHT22;383;48.766;9.270;2022-12-11T11:01:03;3.50;83.70
802;DHT22;383;48.766;9.270;2022-12-11T11:03:33;3.40;83.50
802;DHT22;383;48.766;9.270;2022-12-11T11:06:02;3.40;83.70
802;DHT22;383;48.766;9.270;2022-12-11T11:08:38;3.40;83.20
802;DHT22;383;48.766;9.270;2022-12-11T11:11:05;3.50;82.40
802;DHT22;383;48.766;9.270;2022-12-11T11:13:33;3.60;81.80
802;DHT22;383;48.766;9.270;2022-12-11T11:16:02;3.60;81.90
802;DHT22;383;48.766;9.270;2022-12-11T11:18:31;3.60;81.60
802;DHT22;383;48.766;9.270;2022-12-11T11:20:59;3.50;82.00
802;DHT22;383;48.766;9.270;2022-12-11T11:23:26;3.50;82.60
802;DHT22;383;48.766;9.270;2022-12-11T11:25:55;3.60;82.40
802;DHT22;383;48.766;9.270;2022-12-11T11:28:25;3.60;82.30
802;DHT22;383;48.766;9.270;2022-12-11T11:31:00;3.70;82.60
802;DHT22;383;48.766;9.270;2022-12-11T11:33:29;3.80;80.70
802;DHT22;383;48.766;9.270;2022-12-11T11:35:59;3.90;81.20
802;DHT22;383;48.766;9.270;2022-12-11T11:38:31;3.90;81.40
802;DHT22;383;48.766;9.270;2022-12-11T11:41:07;4.00;80.70
802;DHT22;383;48.766;9.270;2022-12-11T11:43:41;4.00;80.40
802;DHT22;383;48.766;9.270;2022-12-11T11:46:13;4.10;77.80
802;DHT22;383;48.766;9.270;2022-12-11T11:48:48;4.10;78.70
802;DHT22;383;48.766;9.270;2022-12-11T11:51:22;4.00;78.90
802;DHT22;383;48.766;9.270;2022-12-11T11:53:53;3.90;79.10
802;DHT22;383;48.766;9.270;2022-12-11T11:56:22;4.00;78.90
802;DHT22;383;48.766;9.270;2022-12-11T11:59:00;4.00;77.70
802;DHT22;383;48.766;9.270;2022-12-11T12:01:28;4.00;78.50
802;DHT22;383;48.766;9.270;2022-12-11T12:03:55;3.90;79.00
802;DHT22;383;48.766;9.270;2022-12-11T12:06:33;4.00;79.40
802;DHT22;383;48.766;9.270;2022-12-11T12:09:14;4.00;78.70
802;DHT22;383;48.766;9.270;2022-12-11T12:11:48;4.00;78.20
802;DHT22;383;48.766;9.270;2022-12-11T12:14:22;4.00;78.90
802;DHT22;383;48.766;9.270;2022-12-11T12:16:59;4.00;79.00
802;DHT22;383;48.766;9.270;2022-12-11T12:19:43;4.10;79.10
802;DHT22;383;48.766;9.270;2022-12-11T12:22:23;4.10;79.00
802;DHT22;383;48.766;9.270;2022-12-11T12:25:01;4.20;79.10
802;DHT22;383;48.766;9.270;2022-12-11T12:27:33;4.20;79.10
802;DHT22;383;48.766;9.270;2022-12-11T12:30:06;4.20;79.00
802;DHT22;383;48.766;9.270;2022-12-11T12:32:40;4.10;78.70
802;DHT22;383;48.766;9.270;2022-12-11T12:35:19;4.10;79.40
802;DHT22;383;48.766;9.270;2022-12-11T12:37:57;4.20;79.40
802;DHT22;383;48.766;9.270;2022-12-11T12:40:30;4.30;77.30
802;DHT22;383;48.766;9.270;2022-12-11T12:43:04;4.30;77.30
802;DHT22;383;48.766;9.270;2022-12-11T12:45:35;4.20;77.10
802;DHT22;383;48.766;9.270;2022-12-11T12:48:05;4.30;76.20
802;DHT22;383;48.766;9.270;2022-12-11T12:50:37;4.20;76.70
802;DHT22;383;48.766;9.270;2022-12-11T12:53:07;4.20;77.30
802;DHT22;383;48.766;9.270;2022-12-11T12:55:36;4.10;77.70
802;DHT22;383;48.766;9.270;2022-12-11T12:58:04;4.00;77.30
802;DHT22;383;48.766;9.270;2022-12-11T13:00:34;4.00;77.00
802;DHT22;383;48.766;9.270;2022-12-11T13:03:10;3.90;78.10
802;DHT22;383;48.766;9.270;2022-12-11T13:05:41;3.80;78.90
802;DHT22;383;48.766;9.270;2022-12-11T13:08:11;3.80;79.90
802;DHT22;383;48.766;9.270;2022-12-11T13:10:39;3.70;80.20
802;DHT22;383;48.766;9.270;2022-12-11T13:13:28;3.70;80.30
802;DHT22;383;48.766;9.270;2022-12-11T13:16:05;3.60;80.70
802;DHT22;383;48.766;9.270;2022-12-11T13:18:34;3.70;80.60
802;DHT22;383;48.766;9.270;2022-12-11T13:21:02;3.70;80.30
802;DHT22;383;48.766;9.270;2022-12-11T13:23:31;3.70;80.20
802;DHT22;383;48.766;9.270;2022-12-11T13:26:00;3.80;78.20
802;DHT22;383;48.766;9.270;2022-12-11T13:28:33;3.80;77.70
802;DHT22;383;48.766;9.270;2022-12-11T13:31:33;3.70;78.50
802;DHT22;383;48.766;9.270;2022-12-11T13:34:07;3.60;79.90
802;DHT22;383;48.766;9.270;2022-12-11T13:36:40;3.50;80.30
802;DHT22;383;48.766;9.270;2022-12-11T13:39:17;3.50;80.80
802;DHT22;383;48.766;9.270;2022-12-11T13:41:46;3.50;81.10
802;DHT22;383;48.766;9.270;2022-12-11T13:44:19;3.50;81.10
802;DHT22;383;48.766;9.270;2022-12-11T13:46:48;3.50;80.60
802;DHT22;383;48.766;9.270;2022-12-11T13:49:22;3.40;81.00
802;DHT22;383;48.766;9.270;2022-12-11T13:51:54;3.40;81.80
802;DHT22;383;48.766;9.270;2022-12-11T13:54:26;3.40;81.90
802;DHT22;383;48.766;9.270;2022-12-11T13:56:57;3.30;81.50
802;DHT22;383;48.766;9.270;2022-12-11T13:59:27;3.20;80.60
802;DHT22;383;48.766;9.270;2022-12-11T14:01:57;3.10;81.10
802;DHT22;383;48.766;9.270;2022-12-11T14:04:26;3.10;81.80
802;DHT22;383;48.766;9.270;2022-12-11T14:06:54;3.10;81.50
802;DHT22;383;48.766;9.270;2022-12-11T14:09:24;3.20;81.20
802;DHT22;383;48.766;9.270;2022-12-11T14:11:53;3.20;80.60
802;DHT22;383;48.766;9.270;2022-12-11T14:14:23;3.30;80.40
802;DHT22;383;48.766;9.270;2022-12-11T14:16:52;3.20;80.20
802;DHT22;383;48.766;9.270;2022-12-11T14:19:20;3.10;80.80
802;DHT22;383;48.766;9.270;2022-12-11T14:21:55;2.90;82.20
802;DHT22;383;48.766;9.270;2022-12-11T14:24:24;2.80;83.10
802;DHT22;383;48.766;9.270;2022-12-11T14:26:52;2.70;83.60
802;DHT22;383;48.766;9.270;2022-12-11T14:29:27;2.60;83.60
802;DHT22;383;48.766;9.270;2022-12-11T14:31:56;2.50;83.20
802;DHT22;383;48.766;9.270;2022-12-11T14:34:28;2.40;83.70
802;DHT22;383;48.766;9.270;2022-12-11T14:36:56;2.30;84.50
802;DHT22;383;48.766;9.270;2022-12-11T14:39:27;2.10;85.30
802;DHT22;383;48.766;9.270;2022-12-11T14:42:00;2.00;86.00
802;DHT22;383;48.766;9.270;2022-12-11T14:44:31;2.00;86.10
802;DHT22;383;48.766;9.270;2022-12-11T14:47:03;1.90;86.00
802;DHT22;383;48.766;9.270;2022-12-11T14:49:37;1.90;86.00
802;DHT22;383;48.766;9.270;2022-12-11T14:52:08;1.80;86.40
802;DHT22;383;48.766;9.270;2022-12-11T14:54:43;1.70;86.80
802;DHT22;383;48.766;9.270;2022-12-11T14:57:17;1.70;87.10
802;DHT22;383;48.766;9.270;2022-12-11T14:59:45;1.70;87.10
802;DHT22;383;48.766;9.270;2022-12-11T15:02:26;1.70;86.90
802;DHT22;383;48.766;9.270;2022-12-11T15:05:14;1.70;87.70
802;DHT22;383;48.766;9.270;2022-12-11T15:07:52;1.70;88.40
802;DHT22;383;48.766;9.270;2022-12-11T15:10:26;1.70;89.00
802;DHT22;383;48.766;9.270;2022-12-11T15:12:56;1.80;89.40
802;DHT22;383;48.766;9.270;2022-12-11T15:15:23;1.90;88.80
802;DHT22;383;48.766;9.270;2022-12-11T15:17:51;2.00;88.40
802;DHT22;383;48.766;9.270;2022-12-11T15:20:24;2.10;87.30
802;DHT22;383;48.766;9.270;2022-12-11T15:22:52;2.00;87.60
802;DHT22;383;48.766;9.270;2022-12-11T15:25:22;2.10;87.40
802;DHT22;383;48.766;9.270;2022-12-11T15:27:52;2.10;87.30
802;DHT22;383;48.766;9.270;2022-12-11T15:30:27;2.10;86.90
802;DHT22;383;48.766;9.270;2022-12-11T15:33:17;2.00;87.70
802;DHT22;383;48.766;9.270;2022-12-11T15:35:55;2.00;87.80
802;DHT22;383;48.766;9.270;2022-12-11T15:38:28;2.00;87.80
802;DHT22;383;48.766;9.270;2022-12-11T15:40:55;2.10;87.10
802;DHT22;383;48.766;9.270;2022-12-11T15:43:24;2.10;87.30
802;DHT22;383;48.766;9.270;2022-12-11T15:45:51;2.00;87.70
802;DHT22;383;48.766;9.270;2022-12-11T15:48:18;2.00;87.80
802;DHT22;383;48.766;9.270;2022-12-11T15:50:45;1.90;88.10
802;DHT22;383;48.766;9.270;2022-12-11T15:53:12;1.90;88.00
802;DHT22;383;48.766;9.270;2022-12-11T15:55:39;1.80;88.10
802;DHT22;383;48.766;9.270;2022-12-11T15:58:07;1.80;88.10
802;DHT22;383;48.766;9.270;2022-12-11T16:00:54;1.80;88.00
802;DHT22;383;48.766;9.270;2022-12-11T16:03:23;1.70;88.10
802;DHT22;383;48.766;9.270;2022-12-11T16:05:51;1.70;88.90
802;DHT22;383;48.766;9.270;2022-12-11T16:08:20;1.70;89.20
802;DHT22;383;48.766;9.270;2022-12-11T16:10:47;1.70;89.60
802;DHT22;383;48.766;9.270;2022-12-11T16:13:14;1.70;89.90
802;DHT22;383;48.766;9.270;2022-12-11T16:15:42;1.70;90.20
802;DHT22;383;48.766;9.270;2022-12-11T16:18:13;1.70;90.20
802;DHT22;383;48.766;9.270;2022-12-11T16:20:42;1.70;90.00
802;DHT22;383;48.766;9.270;2022-12-11T16:23:10;1.70;90.10
802;DHT22;383;48.766;9.270;2022-12-11T16:25:37;1.80;89.70
802;DHT22;383;48.766;9.270;2022-12-11T16:28:05;1.80;89.00
802;DHT22;383;48.766;9.270;2022-12-11T16:30:34;1.80;89.20
802;DHT22;383;48.766;9.270;2022-12-11T16:33:01;1.80;89.40
802;DHT22;383;48.766;9.270;2022-12-11T16:35:30;1.70;89.20
802;DHT22;383;48.766;9.270;2022-12-11T16:37:57;1.60;89.40
802;DHT22;383;48.766;9.270;2022-12-11T16:40:24;1.60;90.30
802;DHT22;383;48.766;9.270;2022-12-11T16:42:51;1.50;90.70
802;DHT22;383;48.766;9.270;2022-12-11T16:45:19;1.50;90.90
802;DHT22;383;48.766;9.270;2022-12-11T16:47:47;1.50;91.00
802;DHT22;383;48.766;9.270;2022-12-11T16:50:15;1.40;91.00
802;DHT22;383;48.766;9.270;2022-12-11T16:52:44;1.40;91.10
802;DHT22;383;48.766;9.270;2022-12-11T16:55:11;1.40;90.90
802;DHT22;383;48.766;9.270;2022-12-11T16:57:38;1.50;90.70
802;DHT22;383;48.766;9.270;2022-12-11T17:00:07;1.40;90.60
802;DHT22;383;48.766;9.270;2022-12-11T17:02:36;1.40;90.60
802;DHT22;383;48.766;9.270;2022-12-11T17:05:03;1.40;91.00
802;DHT22;383;48.766;9.270;2022-12-11T17:07:30;1.30;91.10
802;DHT22;383;48.766;9.270;2022-12-11T17:09:59;1.30;91.00
802;DHT22;383;48.766;9.270;2022-12-11T17:12:27;1.30;91.10